createdAt,value
2023-03-30T00:00:06.096Z,18.06
2023-03-30T00:02:32.640Z,18.00
2023-03-30T00:04:59.226Z,17.94
2023-03-30T00:07:25.829Z,17.98
2023-03-30T00:09:52.314Z,17.99
2023-03-30T00:12:18.760Z,17.96
2023-03-30T00:14:45.232Z,17.99
2023-03-30T00:17:11.924Z,18.17
2023-03-30T00:19:38.399Z,18.08
2023-03-30T00:22:06.758Z,18.11
2023-03-30T00:24:34.158Z,18.24
2023-03-30T00:27:00.615Z,18.24
2023-03-30T00:29:27.129Z,17.87
2023-03-30T00:31:53.835Z,17.88
2023-03-30T00:34:20.329Z,17.98
2023-03-30T00:36:46.830Z,18.05
2023-03-30T00:39:13.569Z,17.84
2023-03-30T00:41:40.021Z,17.84
2023-03-30T00:44:27.802Z,17.83
2023-03-30T00:46:55.506Z,17.94
2023-03-30T00:49:22.027Z,17.97
2023-03-30T00:51:48.628Z,17.84
2023-03-30T00:54:20.398Z,18.04
2023-03-30T00:56:47.108Z,17.99
2023-03-30T00:59:14.231Z,18.10
2023-03-30T01:01:42.006Z,18.21
2023-03-30T01:04:09.554Z,18.04
2023-03-30T01:06:38.464Z,18.19
2023-03-30T01:09:05.016Z,18.25
2023-03-30T01:11:31.555Z,18.33
2023-03-30T01:14:04.971Z,18.39
2023-03-30T01:16:45.656Z,18.24
2023-03-30T01:19:47.352Z,18.37
2023-03-30T01:22:19.436Z,18.23
2023-03-30T01:25:04.673Z,18.26
2023-03-30T01:27:49.913Z,18.20
2023-03-30T01:30:44.226Z,18.10
2023-03-30T01:33:19.400Z,18.19
2023-03-30T01:35:45.923Z,18.10
2023-03-30T01:38:55.244Z,18.02
2023-03-30T01:41:45.156Z,17.81
2023-03-30T01:44:30.461Z,17.78
2023-03-30T01:47:06.679Z,17.74
2023-03-30T01:49:46.087Z,17.63
2023-03-30T01:52:21.874Z,17.64
2023-03-30T01:54:56.327Z,17.63
2023-03-30T01:57:32.681Z,17.65
2023-03-30T02:00:12.099Z,17.64
2023-03-30T02:02:43.936Z,17.68
2023-03-30T02:05:14.505Z,17.68
2023-03-30T02:07:47.614Z,17.68
2023-03-30T02:10:17.831Z,17.69
2023-03-30T02:12:46.747Z,17.70
2023-03-30T02:15:17.628Z,17.65
2023-03-30T02:17:44.376Z,17.67
2023-03-30T02:20:11.410Z,17.52
2023-03-30T02:22:39.334Z,17.43
2023-03-30T02:25:06.504Z,17.39
2023-03-30T02:27:33.716Z,17.31
2023-03-30T02:30:00.845Z,17.36
2023-03-30T02:32:34.508Z,17.43
2023-03-30T02:35:34.913Z,17.50
2023-03-30T02:38:22.288Z,17.51
2023-03-30T02:41:12.256Z,17.24
2023-03-30T02:44:02.948Z,17.48
2023-03-30T02:46:59.502Z,17.51
2023-03-30T02:49:32.932Z,17.52
2023-03-30T02:52:22.046Z,16.65
2023-03-30T02:54:51.402Z,16.87
2023-03-30T02:57:29.705Z,16.69
2023-03-30T03:00:02.519Z,17.06
2023-03-30T03:02:35.543Z,17.26
2023-03-30T03:05:02.440Z,17.45
2023-03-30T03:07:29.315Z,17.56
2023-03-30T03:09:55.805Z,17.66
2023-03-30T03:12:22.331Z,17.78
2023-03-30T03:14:48.822Z,17.00
2023-03-30T03:17:15.481Z,17.24
2023-03-30T03:19:42.121Z,17.59
2023-03-30T03:22:08.616Z,17.74
2023-03-30T03:24:35.110Z,17.88
2023-03-30T03:27:01.601Z,17.85
2023-03-30T03:29:28.069Z,17.83
2023-03-30T03:31:54.641Z,17.82
2023-03-30T03:34:21.207Z,17.62
2023-03-30T03:36:47.686Z,17.68
2023-03-30T03:39:14.182Z,17.79
2023-03-30T03:41:40.725Z,17.81
2023-03-30T03:44:07.279Z,17.63
2023-03-30T03:46:33.914Z,17.27
2023-03-30T03:49:00.477Z,17.04
2023-03-30T03:51:26.930Z,17.49
2023-03-30T03:53:53.408Z,17.61
2023-03-30T03:56:20.054Z,17.60
2023-03-30T03:58:46.583Z,17.70
2023-03-30T04:01:13.162Z,17.76
2023-03-30T04:03:40.420Z,17.76
2023-03-30T04:06:07.302Z,17.71
2023-03-30T04:08:33.785Z,17.57
2023-03-30T04:11:09.314Z,17.70
2023-03-30T04:13:36.100Z,17.74
2023-03-30T04:16:02.670Z,17.62
2023-03-30T04:18:30.166Z,17.64
2023-03-30T04:20:57.541Z,17.77
2023-03-30T04:23:24.003Z,17.46
2023-03-30T04:25:50.476Z,17.51
2023-03-30T04:28:17.157Z,17.70
2023-03-30T04:30:43.623Z,17.72
2023-03-30T04:33:10.154Z,17.81
2023-03-30T04:35:36.711Z,17.84
2023-03-30T04:38:03.211Z,17.63
2023-03-30T04:40:29.817Z,17.80
2023-03-30T04:42:56.416Z,17.67
2023-03-30T04:45:22.895Z,17.53
2023-03-30T04:47:49.468Z,17.47
2023-03-30T04:50:16.679Z,17.36
2023-03-30T04:52:43.171Z,17.31
2023-03-30T04:55:09.888Z,17.31
2023-03-30T04:57:36.514Z,17.28
2023-03-30T05:00:05.249Z,17.09
2023-03-30T05:02:31.819Z,17.35
2023-03-30T05:04:58.416Z,17.28
2023-03-30T05:07:24.921Z,17.32
2023-03-30T05:09:51.368Z,17.40
2023-03-30T05:12:17.843Z,17.30
2023-03-30T05:14:44.316Z,16.98
2023-03-30T05:17:10.832Z,16.77
2023-03-30T05:19:37.369Z,15.93
2023-03-30T05:22:03.888Z,16.27
2023-03-30T05:24:30.428Z,16.50
2023-03-30T05:26:56.879Z,16.53
2023-03-30T05:29:23.340Z,16.75
2023-03-30T05:31:49.910Z,16.68
2023-03-30T05:34:16.534Z,16.66
2023-03-30T05:36:43.011Z,17.08
2023-03-30T05:39:09.469Z,16.51
2023-03-30T05:41:35.930Z,16.93
2023-03-30T05:44:02.395Z,16.89
2023-03-30T05:46:28.925Z,16.89
2023-03-30T05:48:55.422Z,16.03
2023-03-30T05:51:21.919Z,16.60
2023-03-30T05:53:48.439Z,16.27
2023-03-30T05:56:14.938Z,16.43
2023-03-30T05:58:41.445Z,16.95
2023-03-30T06:01:08.008Z,17.13
2023-03-30T06:03:34.594Z,17.42
2023-03-30T06:06:01.248Z,17.59
2023-03-30T06:08:28.024Z,17.37
2023-03-30T06:10:56.321Z,17.50
2023-03-30T06:13:23.404Z,17.68
2023-03-30T06:15:49.943Z,17.61
2023-03-30T06:18:16.711Z,17.79
2023-03-30T06:20:46.831Z,17.76
2023-03-30T06:23:13.616Z,17.84
2023-03-30T06:25:40.182Z,17.79
2023-03-30T06:28:06.947Z,17.95
2023-03-30T06:30:33.451Z,17.89
2023-03-30T06:32:59.965Z,17.99
2023-03-30T06:35:26.487Z,18.11
2023-03-30T06:37:53.016Z,18.12
2023-03-30T06:40:19.525Z,18.17
2023-03-30T06:42:46.172Z,18.00
2023-03-30T06:45:14.356Z,17.90
2023-03-30T06:47:40.967Z,17.29
2023-03-30T06:50:08.301Z,17.33
2023-03-30T06:52:37.182Z,17.09
2023-03-30T06:55:04.922Z,17.04
2023-03-30T06:57:31.647Z,17.01
2023-03-30T06:59:58.145Z,17.16
2023-03-30T07:02:24.700Z,17.23
2023-03-30T07:04:51.409Z,17.38
2023-03-30T07:07:18.954Z,17.22
2023-03-30T07:09:45.412Z,17.10
2023-03-30T07:12:11.885Z,17.15
2023-03-30T07:14:38.347Z,16.86
2023-03-30T07:17:04.841Z,16.38
2023-03-30T07:19:31.337Z,16.39
2023-03-30T07:21:57.942Z,16.31
2023-03-30T07:24:24.408Z,16.13
2023-03-30T07:26:50.850Z,16.23
2023-03-30T07:29:17.354Z,16.39
2023-03-30T07:31:43.942Z,16.19
2023-03-30T07:34:10.509Z,16.44
2023-03-30T07:36:36.965Z,16.08
2023-03-30T07:39:03.437Z,16.16
2023-03-30T07:41:30.001Z,15.98
2023-03-30T07:43:56.492Z,15.80
2023-03-30T07:46:23.084Z,15.65
2023-03-30T07:48:49.581Z,15.66
2023-03-30T07:51:17.301Z,15.45
2023-03-30T07:53:44.130Z,15.61
2023-03-30T07:56:10.634Z,15.76
2023-03-30T07:58:37.262Z,15.77
2023-03-30T08:01:03.917Z,15.94
2023-03-30T08:03:30.668Z,16.26
2023-03-30T08:06:06.142Z,16.29
2023-03-30T08:08:33.844Z,16.32
2023-03-30T08:11:00.425Z,16.21
2023-03-30T08:13:27.056Z,16.20
2023-03-30T08:15:54.308Z,15.93
2023-03-30T08:18:21.394Z,15.65
2023-03-30T08:20:51.816Z,15.34
2023-03-30T08:23:18.498Z,14.89
2023-03-30T08:25:47.187Z,14.75
2023-03-30T08:28:13.789Z,14.63
2023-03-30T08:30:40.276Z,14.50
2023-03-30T08:33:06.760Z,14.45
2023-03-30T08:35:33.351Z,14.47
2023-03-30T08:38:00.019Z,14.23
2023-03-30T08:40:26.671Z,14.06
2023-03-30T08:43:21.152Z,13.87
2023-03-30T08:45:48.429Z,13.85
2023-03-30T08:48:24.700Z,13.70
2023-03-30T08:51:02.095Z,13.63
2023-03-30T08:53:32.810Z,13.70
2023-03-30T08:56:12.261Z,13.81
2023-03-30T08:59:04.396Z,13.97
2023-03-30T09:01:53.004Z,13.77
2023-03-30T09:04:31.836Z,14.01
2023-03-30T09:07:11.025Z,14.15
2023-03-30T09:09:47.279Z,14.59
2023-03-30T09:12:24.131Z,14.54
2023-03-30T09:15:05.648Z,14.29
2023-03-30T09:17:43.836Z,14.41
2023-03-30T09:20:24.457Z,14.50
2023-03-30T09:22:54.736Z,14.52
2023-03-30T09:25:35.663Z,14.27
2023-03-30T09:28:32.656Z,14.21
2023-03-30T09:31:21.335Z,14.59
2023-03-30T09:34:02.429Z,14.76
2023-03-30T09:36:50.676Z,14.48
2023-03-30T09:39:24.178Z,14.61
2023-03-30T09:42:01.096Z,14.52
2023-03-30T09:44:41.924Z,14.83
2023-03-30T09:47:29.236Z,14.76
2023-03-30T09:49:57.676Z,14.91
2023-03-30T09:52:28.398Z,14.92
2023-03-30T09:54:54.882Z,15.02
2023-03-30T09:57:29.323Z,14.93
2023-03-30T09:59:57.664Z,15.02
2023-03-30T10:02:26.641Z,14.93
2023-03-30T10:04:53.201Z,14.78
2023-03-30T10:07:41.629Z,15.09
2023-03-30T10:10:20.558Z,15.13
2023-03-30T10:12:50.668Z,15.25
2023-03-30T10:15:20.270Z,15.82
2023-03-30T10:17:48.565Z,16.23
2023-03-30T10:20:34.028Z,15.99
2023-03-30T10:23:13.425Z,15.92
2023-03-30T10:25:42.660Z,15.82
2023-03-30T10:28:20.368Z,15.54
2023-03-30T10:31:04.678Z,15.87
2023-03-30T10:33:39.903Z,16.14
2023-03-30T10:36:07.644Z,16.39
2023-03-30T10:38:37.207Z,16.04
2023-03-30T10:41:29.355Z,16.28
2023-03-30T10:43:55.897Z,15.78
2023-03-30T10:46:24.449Z,15.41
2023-03-30T10:49:20.459Z,15.47
2023-03-30T10:52:12.075Z,15.54
2023-03-30T10:54:54.952Z,15.73
2023-03-30T10:57:37.279Z,15.77
2023-03-30T11:00:14.128Z,15.67
2023-03-30T11:02:49.589Z,15.39
2023-03-30T11:05:26.317Z,15.22
2023-03-30T11:08:13.102Z,15.16
2023-03-30T11:10:47.159Z,15.07
2023-03-30T11:13:16.607Z,15.11
2023-03-30T11:15:59.077Z,15.15
2023-03-30T11:18:54.178Z,15.18
2023-03-30T11:21:30.681Z,15.65
2023-03-30T11:24:06.712Z,15.57
2023-03-30T11:26:38.835Z,15.69
2023-03-30T11:29:30.756Z,15.66
2023-03-30T11:32:20.613Z,15.45
2023-03-30T11:35:16.654Z,15.44
2023-03-30T11:37:58.010Z,15.88
2023-03-30T11:40:27.412Z,16.18
2023-03-30T11:42:54.581Z,16.42
2023-03-30T11:45:45.848Z,16.32
2023-03-30T11:48:55.822Z,16.69
2023-03-30T11:51:46.720Z,16.65
2023-03-30T11:55:02.870Z,16.49
2023-03-30T11:57:40.088Z,16.81
2023-03-30T12:00:43.859Z,16.92
2023-03-30T12:03:34.779Z,17.33
2023-03-30T12:06:26.502Z,17.36
2023-03-30T12:09:03.069Z,17.17
2023-03-30T12:11:54.844Z,17.36
2023-03-30T12:14:48.936Z,17.17
2023-03-30T12:17:25.842Z,17.17
2023-03-30T12:20:11.480Z,17.24
2023-03-30T12:22:57.132Z,17.31
2023-03-30T12:25:38.603Z,16.85
2023-03-30T12:28:16.334Z,16.38
2023-03-30T12:30:45.198Z,16.36
2023-03-30T12:33:35.762Z,16.14
2023-03-30T12:36:34.543Z,16.25
2023-03-30T12:39:02.887Z,15.93
2023-03-30T12:41:40.794Z,15.61
2023-03-30T12:44:31.257Z,15.37
2023-03-30T12:47:28.661Z,15.45
2023-03-30T12:49:57.835Z,15.70
2023-03-30T12:52:39.550Z,15.70
2023-03-30T12:55:27.614Z,15.82
2023-03-30T12:58:25.016Z,15.95
2023-03-30T13:01:20.891Z,16.04
2023-03-30T13:04:20.620Z,16.26
2023-03-30T13:06:56.553Z,16.50
2023-03-30T13:09:25.808Z,16.89
2023-03-30T13:11:52.207Z,17.15
2023-03-30T13:14:38.839Z,17.71
2023-03-30T13:17:16.001Z,17.77
2023-03-30T13:19:44.346Z,18.08
2023-03-30T13:22:10.741Z,17.97
2023-03-30T13:24:43.255Z,18.23
2023-03-30T13:27:18.812Z,18.51
2023-03-30T13:30:08.049Z,18.83
2023-03-30T13:33:02.490Z,18.92
2023-03-30T13:35:34.958Z,19.13
2023-03-30T13:38:15.954Z,19.36
2023-03-30T13:41:13.504Z,19.60
2023-03-30T13:43:42.729Z,19.75
2023-03-30T13:46:34.692Z,19.62
2023-03-30T13:49:39.470Z,19.68
2023-03-30T13:52:15.905Z,19.51
2023-03-30T13:54:44.249Z,19.47
2023-03-30T13:57:23.441Z,19.79
2023-03-30T13:59:58.994Z,19.99
2023-03-30T14:02:30.343Z,19.86
2023-03-30T14:05:17.973Z,20.12
2023-03-30T14:07:46.217Z,19.87
2023-03-30T14:10:22.013Z,19.76
2023-03-30T14:12:57.277Z,19.84
2023-03-30T14:15:34.794Z,19.92
2023-03-30T14:18:03.370Z,19.51
2023-03-30T14:20:47.375Z,19.46
2023-03-30T14:23:19.212Z,19.63
2023-03-30T14:25:46.118Z,19.58
2023-03-30T14:28:19.193Z,19.81
2023-03-30T14:30:50.128Z,19.66
2023-03-30T14:33:17.317Z,19.61
2023-03-30T14:35:49.434Z,19.64
2023-03-30T14:38:35.743Z,19.87
2023-03-30T14:41:07.514Z,19.90
2023-03-30T14:43:34.815Z,19.75
2023-03-30T14:46:07.047Z,19.56
2023-03-30T14:48:39.313Z,19.66
2023-03-30T14:51:26.863Z,19.29
2023-03-30T14:53:55.154Z,19.73
2023-03-30T14:56:23.256Z,19.80
2023-03-30T14:58:52.097Z,19.87
2023-03-30T15:01:29.584Z,19.99
2023-03-30T15:03:58.887Z,19.99
2023-03-30T15:06:29.709Z,20.16
2023-03-30T15:09:02.439Z,20.14
2023-03-30T15:11:33.254Z,20.12
2023-03-30T15:14:07.297Z,20.33
2023-03-30T15:16:38.308Z,20.37
2023-03-30T15:19:22.099Z,20.50
2023-03-30T15:21:56.109Z,20.21
2023-03-30T15:24:28.943Z,20.28
2023-03-30T15:26:59.796Z,20.28
2023-03-30T15:29:26.865Z,20.05
2023-03-30T15:32:13.875Z,19.62
2023-03-30T15:35:06.025Z,20.05
2023-03-30T15:37:34.656Z,19.81
2023-03-30T15:40:02.026Z,19.66
2023-03-30T15:42:31.334Z,19.59
2023-03-30T15:45:03.368Z,19.84
2023-03-30T15:47:31.410Z,19.58
2023-03-30T15:49:57.987Z,19.87
2023-03-30T15:52:33.359Z,19.81
2023-03-30T15:55:14.413Z,20.20
2023-03-30T15:57:48.387Z,20.12
2023-03-30T16:00:20.764Z,20.25
2023-03-30T16:02:59.649Z,20.06
2023-03-30T16:05:29.499Z,19.66
2023-03-30T16:07:56.025Z,19.85
2023-03-30T16:10:25.873Z,19.59
2023-03-30T16:12:54.570Z,20.15
2023-03-30T16:15:24.417Z,20.30
2023-03-30T16:17:51.495Z,20.19
2023-03-30T16:20:24.031Z,21.02
2023-03-30T16:22:51.131Z,21.20
2023-03-30T16:25:23.311Z,21.60
2023-03-30T16:27:54.922Z,22.30
2023-03-30T16:30:32.735Z,22.17
2023-03-30T16:32:59.800Z,22.39
2023-03-30T16:35:26.640Z,22.34
2023-03-30T16:37:53.141Z,21.94
2023-03-30T16:40:33.417Z,21.95
2023-03-30T16:43:00.074Z,22.01
2023-03-30T16:45:27.307Z,21.59
2023-03-30T16:47:54.100Z,21.21
2023-03-30T16:50:24.933Z,21.27
2023-03-30T16:52:51.678Z,21.57
2023-03-30T16:55:19.013Z,21.74
2023-03-30T16:57:45.746Z,21.47
2023-03-30T17:00:26.119Z,21.04
2023-03-30T17:02:52.662Z,20.87
2023-03-30T17:05:19.818Z,20.81
2023-03-30T17:07:46.974Z,20.85
2023-03-30T17:10:24.176Z,20.41
2023-03-30T17:12:51.853Z,20.51
2023-03-30T17:15:19.466Z,20.51
2023-03-30T17:17:46.854Z,20.27
2023-03-30T17:20:18.109Z,20.28
2023-03-30T17:22:44.739Z,20.32
2023-03-30T17:25:11.749Z,20.26
2023-03-30T17:27:39.449Z,19.92
2023-03-30T17:30:15.757Z,20.06
2023-03-30T17:32:42.263Z,19.91
2023-03-30T17:35:08.980Z,19.24
2023-03-30T17:37:35.555Z,19.52
2023-03-30T17:40:14.452Z,19.40
2023-03-30T17:42:40.939Z,19.57
2023-03-30T17:45:08.041Z,19.55
2023-03-30T17:47:34.531Z,19.64
2023-03-30T17:50:00.995Z,19.69
2023-03-30T17:52:27.457Z,19.48
2023-03-30T17:54:53.932Z,19.21
2023-03-30T17:57:20.391Z,19.06
2023-03-30T17:59:46.965Z,18.82
2023-03-30T18:02:13.530Z,18.71
2023-03-30T18:04:40.168Z,18.67
2023-03-30T18:07:06.705Z,18.83
2023-03-30T18:09:33.180Z,18.84
2023-03-30T18:11:59.652Z,18.95
2023-03-30T18:14:26.139Z,19.20
2023-03-30T18:17:04.525Z,19.23
2023-03-30T18:19:32.734Z,19.27
2023-03-30T18:21:59.202Z,19.16
2023-03-30T18:24:25.703Z,19.19
2023-03-30T18:26:52.185Z,19.22
2023-03-30T18:29:19.452Z,19.23
2023-03-30T18:31:46.661Z,19.12
2023-03-30T18:34:13.165Z,19.15
2023-03-30T18:36:39.831Z,19.13
2023-03-30T18:39:06.274Z,19.10
2023-03-30T18:41:32.734Z,19.02
2023-03-30T18:43:59.195Z,19.02
2023-03-30T18:46:25.765Z,19.02
2023-03-30T18:48:52.296Z,19.00
2023-03-30T18:51:18.748Z,19.06
2023-03-30T18:53:45.205Z,19.00
2023-03-30T18:56:12.336Z,19.03
2023-03-30T18:58:38.844Z,19.00
2023-03-30T19:01:05.401Z,18.97
2023-03-30T19:03:31.997Z,18.75
2023-03-30T19:05:58.545Z,18.80
2023-03-30T19:08:26.808Z,18.95
2023-03-30T19:10:56.096Z,18.99
2023-03-30T19:13:24.311Z,18.96
2023-03-30T19:15:52.072Z,18.94
2023-03-30T19:18:19.880Z,18.87
2023-03-30T19:20:47.233Z,18.90
2023-03-30T19:23:15.378Z,18.88
2023-03-30T19:25:43.360Z,18.89
2023-03-30T19:28:11.062Z,18.86
2023-03-30T19:30:39.589Z,18.83
2023-03-30T19:33:09.993Z,18.76
2023-03-30T19:35:38.706Z,18.75
2023-03-30T19:38:05.223Z,18.78
2023-03-30T19:40:31.696Z,18.68
2023-03-30T19:42:58.163Z,18.54
2023-03-30T19:45:24.695Z,18.46
2023-03-30T19:47:51.781Z,18.41
2023-03-30T19:53:46.232Z,18.33
2023-03-30T19:56:12.708Z,18.14
2023-03-30T19:58:39.229Z,18.17
2023-03-30T20:01:07.400Z,18.22
2023-03-30T20:03:35.357Z,18.24
2023-03-30T20:06:02.216Z,18.12
2023-03-30T20:08:28.710Z,17.95
2023-03-30T20:10:55.446Z,17.61
2023-03-30T20:13:22.736Z,17.67
2023-03-30T20:15:54.636Z,17.31
2023-03-30T20:18:21.292Z,17.56
2023-03-30T20:20:47.780Z,17.69
2023-03-30T20:23:14.264Z,17.71
2023-03-30T20:25:47.007Z,17.75
2023-03-30T20:28:13.532Z,17.72
2023-03-30T20:30:40.074Z,17.63
2023-03-30T20:33:08.135Z,17.42
2023-03-30T20:35:36.421Z,17.47
2023-03-30T20:38:03.649Z,17.66
2023-03-30T20:40:31.213Z,17.49
2023-03-30T20:42:57.825Z,17.77
2023-03-30T20:45:24.331Z,17.73
2023-03-30T20:47:50.797Z,17.83
2023-03-30T20:50:17.285Z,17.91
2023-03-30T20:52:43.773Z,17.80
2023-03-30T20:55:10.222Z,17.79
2023-03-30T20:57:36.848Z,17.86
2023-03-30T21:00:04.466Z,17.85
2023-03-30T21:02:31.640Z,17.90
2023-03-30T21:04:58.222Z,17.58
2023-03-30T21:07:24.770Z,17.76
2023-03-30T21:09:51.368Z,17.73
2023-03-30T21:12:17.866Z,17.73
2023-03-30T21:14:44.392Z,17.75
2023-03-30T21:17:11.271Z,17.75
2023-03-30T21:19:38.339Z,17.75
2023-03-30T21:22:04.781Z,17.75
2023-03-30T21:24:31.249Z,17.76
2023-03-30T21:26:57.746Z,17.76
2023-03-30T21:29:24.339Z,17.82
2023-03-30T21:31:50.868Z,17.80
2023-03-30T21:34:17.331Z,17.75
2023-03-30T21:36:43.934Z,17.56
2023-03-30T21:39:10.503Z,17.47
2023-03-30T21:41:36.953Z,17.34
2023-03-30T21:44:03.460Z,17.42
2023-03-30T21:46:29.991Z,17.49
2023-03-30T21:48:56.599Z,17.57
2023-03-30T21:51:28.411Z,17.59
2023-03-30T21:53:56.232Z,17.52
2023-03-30T21:56:25.464Z,17.61
2023-03-30T21:58:53.312Z,17.51
2023-03-30T22:01:21.553Z,17.02
2023-03-30T22:03:48.092Z,17.19
2023-03-30T22:06:16.225Z,17.10
2023-03-30T22:08:44.205Z,17.36
2023-03-30T22:11:23.300Z,17.44
2023-03-30T22:13:51.477Z,17.26
2023-03-30T22:16:22.296Z,17.28
2023-03-30T22:18:50.233Z,17.30
2023-03-30T22:21:20.206Z,17.37
2023-03-30T22:23:47.069Z,17.45
2023-03-30T22:26:14.058Z,17.50
2023-03-30T22:28:41.080Z,17.37
2023-03-30T22:31:12.460Z,17.53
2023-03-30T22:33:39.211Z,17.44
2023-03-30T22:36:06.488Z,17.49
2023-03-30T22:38:33.132Z,17.12
2023-03-30T22:41:04.538Z,16.72
2023-03-30T22:43:32.499Z,16.68
2023-03-30T22:45:59.181Z,16.98
2023-03-30T22:48:25.959Z,17.05
2023-03-30T22:50:52.444Z,17.12
2023-03-30T22:53:18.913Z,17.28
2023-03-30T22:55:48.227Z,16.66
2023-03-30T22:58:15.498Z,16.47
2023-03-30T23:00:41.980Z,16.56
2023-03-30T23:03:08.723Z,16.62
2023-03-30T23:05:35.268Z,16.93
2023-03-30T23:08:01.735Z,16.88
2023-03-30T23:10:28.213Z,16.97
2023-03-30T23:12:54.694Z,17.08
2023-03-30T23:15:21.180Z,17.20
2023-03-30T23:17:48.433Z,17.15
2023-03-30T23:20:17.060Z,16.97
2023-03-30T23:22:43.748Z,17.19
2023-03-30T23:25:10.270Z,17.15
2023-03-30T23:27:37.377Z,16.57
2023-03-30T23:30:05.325Z,16.72
2023-03-30T23:32:33.866Z,16.46
2023-03-30T23:35:00.547Z,16.70
2023-03-30T23:37:27.282Z,16.04
2023-03-30T23:39:53.767Z,15.95
2023-03-30T23:42:20.238Z,16.14
2023-03-30T23:44:46.712Z,16.22
2023-03-30T23:47:13.242Z,16.55
2023-03-30T23:49:39.696Z,16.70
2023-03-30T23:52:06.144Z,16.45
2023-03-30T23:54:32.601Z,16.13
2023-03-30T23:56:59.093Z,16.45
2023-03-30T23:59:25.568Z,16.75
